Airport, Ohio
Current Conditions -  °F | °C
As of 2:52 PM on Thursday 18 Dec 2014 (Local Time) from KCVG Reporting Station
Overcast Overcast  
Wind Chill: -2°   Ceiling: 2000
Heat Index: -2°   Visibility: 9mi
Dew Point: -7°   Wind: 0mph
Humidity: 67%   Direction: NA
Pressure: 30.2"   Gusts: NA
Location:  39.0588°N, 84.6513°W
Report Text: KCVG 181952Z 00000KT 9SM BKN020 BKN070 OVC100 M02/M07 A3020 RMK AO2 SNE19 SLP236 INTMT -SG P0000 T10171072
Loading
Personal Weather Stations






























Interactive Weather Map New forecast layout! Learn more

10-Day Weather Forecast

Advertisements
Track Severe Weather on mobile